Time;durP1;ratioP1;P1;durP2;ratioP2;P2;SDS_P1;SDS_P2;PMS_P1;PMS_P2;Temp;Humidity;BMP_temperature;BMP_pressure;BME280_temperature;BME280_humidity;BME280_pressure;Samples;Min_cycle;Max_cycle;Signal;HPM_P1;HPM_P2
2022/04/17 20:33:05;;;;;;;9.48;6.53;;;;;;;;;;8564176;27;20559;-59
2022/04/17 20:37:06;;;;;;;9.73;5.75;;;;;;;;;;8529727;27;20023;-60
2022/04/17 20:41:07;;;;;;;8.67;6.10;;;;;;;;;;8529698;27;20043;-59
2022/04/17 20:53:48;;;;;;;10.25;5.20;;;;;;;;;;8529258;27;20056;-60
2022/04/17 20:57:49;;;;;;;8.18;4.88;;;;;;;;;;8529150;27;20110;-60
2022/04/17 21:01:51;;;;;;;8.10;4.90;;;;;;;;;;8510387;27;20031;-58
2022/04/17 21:05:52;;;;;;;;;;;;;;;;;;8510693;27;20472;-59
2022/04/17 21:09:54;;;;;;;8.00;4.97;;;;;;;;;;8528960;27;19907;-59
2022/04/17 21:13:55;;;;;;;10.00;5.07;;;;;;;;;;8528687;27;20023;-59
2022/04/17 21:17:56;;;;;;;6.03;4.23;;;;;;;;;;8528751;27;20015;-59
2022/04/17 21:21:57;;;;;;;7.70;4.70;;;;;;;;;;8528624;27;20038;-59
2022/04/17 21:25:58;;;;;;;8.87;4.57;;;;;;;;;;8528648;27;20240;-59
2022/04/17 21:29:59;;;;;;;6.77;4.07;;;;;;;;;;8514470;27;20062;-59
2022/04/17 21:34:00;;;;;;;7.90;4.75;;;;;;;;;;8493954;28;20045;-60
2022/04/17 21:38:01;;;;;;;7.53;4.17;;;;;;;;;;8493816;28;20064;-59
2022/04/17 21:42:02;;;;;;;8.03;4.77;;;;;;;;;;8484405;28;20529;-57
2022/04/17 21:46:03;;;;;;;6.70;4.47;;;;;;;;;;8452306;28;20032;-57
2022/04/17 21:50:07;;;;;;;7.23;4.27;;;;;;;;;;8470465;28;20576;-55
2022/04/17 21:54:08;;;;;;;7.93;4.72;;;;;;;;;;8470292;28;20035;-56
2022/04/17 21:58:09;;;;;;;7.53;4.87;;;;;;;;;;8470340;28;20378;-57
2022/04/17 22:06:30;;;;;;;6.90;4.70;;;;;;;;;;8469982;28;20185;-57
2022/04/17 22:10:31;;;;;;;8.52;5.07;;;;;;;;;;8469853;28;20078;-56
2022/04/17 22:14:32;;;;;;;8.10;4.70;;;;;;;;;;8451653;28;20039;-57
2022/04/17 22:18:33;;;;;;;7.90;5.13;;;;;;;;;;8469591;28;20020;-59
2022/04/17 22:22:38;;;;;;;9.23;5.43;;;;;;;;;;8469616;28;20408;-57
2022/04/17 22:26:39;;;;;;;8.52;5.43;;;;;;;;;;8469194;28;20031;-56
2022/04/17 22:30:40;;;;;;;6.53;4.73;;;;;;;;;;8468816;28;20077;-55
2022/04/17 22:34:41;;;;;;;7.63;4.80;;;;;;;;;;8469126;28;20023;-57
2022/04/17 22:38:42;;;;;;;10.50;5.30;;;;;;;;;;8450691;28;20363;-56
2022/04/17 22:42:43;;;;;;;7.03;4.90;;;;;;;;;;8468616;28;20031;-56
2022/04/17 22:46:43;;;;;;;6.30;4.77;;;;;;;;;;8468645;28;20023;-56
2022/04/17 22:50:44;;;;;;;6.33;4.40;;;;;;;;;;8468490;28;20039;-56
2022/04/17 22:54:47;;;;;;;5.30;3.90;;;;;;;;;;8467490;28;20024;-56
2022/04/17 22:58:48;;;;;;;5.38;3.85;;;;;;;;;;8468288;28;20016;-56
2022/04/17 23:02:49;;;;;;;5.67;4.10;;;;;;;;;;8468013;28;20066;-53
2022/04/17 23:06:50;;;;;;;5.63;4.10;;;;;;;;;;8468122;28;20027;-53
2022/04/17 23:10:54;;;;;;;7.50;3.47;;;;;;;;;;8467841;28;20032;-55
2022/04/17 23:14:55;;;;;;;6.38;3.85;;;;;;;;;;8467712;28;20023;-55
2022/04/17 23:18:55;;;;;;;5.27;3.90;;;;;;;;;;8467648;28;20016;-57
2022/04/17 23:22:56;;;;;;;7.43;4.13;;;;;;;;;;8467451;28;20079;-54
2022/04/17 23:26:57;;;;;;;5.93;3.73;;;;;;;;;;8467536;28;20080;-57
2022/04/17 23:30:58;;;;;;;4.77;3.60;;;;;;;;;;8467065;28;20096;-55
2022/04/17 23:34:59;;;;;;;5.33;3.27;;;;;;;;;;8468016;28;20458;-55
2022/04/17 23:39:00;;;;;;;7.18;3.80;;;;;;;;;;8466998;28;20072;-56
2022/04/17 23:43:01;;;;;;;6.43;3.87;;;;;;;;;;8466899;28;20035;-56
2022/04/17 23:47:02;;;;;;;5.47;3.97;;;;;;;;;;8448169;28;20028;-56
2022/04/17 23:51:03;;;;;;;7.30;3.47;;;;;;;;;;8466548;28;20036;-53
2022/04/17 23:55:05;;;;;;;5.33;3.67;;;;;;;;;;8466521;28;20068;-57
2022/04/17 23:59:08;;;;;;;6.15;3.75;;;;;;;;;;8466413;28;20106;-52
